Aviation Digital Data Service (ADDS)

Output produced by TAFs form (1816 UTC 01 October 2014)
found at http://www.aviationweather.gov/adds/tafs/
 
KABE 011720Z 0118/0218 05006KT P6SM BKN035 
     FM020100 02004KT P6SM BKN030 
     FM020900 36003KT 5SM BR BKN025 
     FM021400 02009KT P6SM BKN035